Time;durP1;ratioP1;P1;durP2;ratioP2;P2;SDS_P1;SDS_P2;PMS_P1;PMS_P2;Temp;Humidity;BMP_temperature;BMP_pressure;BME280_temperature;BME280_humidity;BME280_pressure;Samples;Min_cycle;Max_cycle;Signal;HPM_P1;HPM_P2
2020/10/12 00:00:01;;;;;;;11.1;8.9;;;;;;;5.99;91.29199;95398.64;;;;
2020/10/12 00:01:02;;;;;;;11.1;8.9;;;;;;;5.99;91.29199;95398.64;;;;
2020/10/12 00:02:29;;;;;;;11.1;8.9;;;;;;;5.99;91.29199;95398.64;;;;
2020/10/12 00:04:32;;;;;;;11.1;8.9;;;;;;;5.99;91.29199;95398.64;;;;
2020/10/12 00:05:35;;;;;;;11.1;8.9;;;;;;;5.99;91.29199;95398.64;;;;
2020/10/12 00:06:35;;;;;;;11.1;8.9;;;;;;;5.99;91.29199;95398.64;;;;
2020/10/12 00:15:49;;;;;;;12.95;9.500002;;;;;;;5.82;91.81445;95401.26;;;;
2020/10/12 00:24:15;;;;;;;13.25;10.15;;;;;;;5.68;92.07031;95408.94;;;;
2020/10/12 00:25:16;;;;;;;13.25;10.15;;;;;;;5.68;92.07031;95408.94;;;;
2020/10/12 00:26:16;;;;;;;13.25;10.15;;;;;;;5.68;92.07031;95408.94;;;;
2020/10/12 00:27:21;;;;;;;13.25;10.15;;;;;;;5.68;92.07031;95408.94;;;;
2020/10/12 00:28:24;;;;;;;15.55;11;;;;;;;5.78;92.50977;95407.22;;;;
2020/10/12 00:29:26;;;;;;;15.55;11;;;;;;;5.78;92.50977;95407.22;;;;
2020/10/12 00:30:27;;;;;;;15.55;11;;;;;;;5.78;92.50977;95407.22;;;;
2020/10/12 00:31:28;;;;;;;15.55;11;;;;;;;5.78;92.50977;95407.22;;;;
2020/10/12 00:32:28;;;;;;;15.55;11;;;;;;;5.78;92.50977;95407.22;;;;
2020/10/12 00:33:29;;;;;;;15.55;11;;;;;;;5.78;92.50977;95407.22;;;;
2020/10/12 00:34:29;;;;;;;15.55;11;;;;;;;5.78;92.50977;95407.22;;;;
2020/10/12 00:35:30;;;;;;;15.55;11;;;;;;;5.78;92.50977;95407.22;;;;
2020/10/12 00:36:32;;;;;;;15.55;11;;;;;;;5.78;92.50977;95407.22;;;;
2020/10/12 00:37:36;;;;;;;15.55;11;;;;;;;5.78;92.50977;95407.22;;;;
2020/10/12 00:38:41;;;;;;;15.55;11;;;;;;;5.78;92.50977;95407.22;;;;
2020/10/12 00:39:42;;;;;;;13.85;10.9;;;;;;;5.78;92.25879;95412.98;;;;
2020/10/12 00:40:50;;;;;;;13.85;10.9;;;;;;;5.78;92.25879;95412.98;;;;
2020/10/12 00:41:51;;;;;;;13.85;10.9;;;;;;;5.78;92.25879;95412.98;;;;
2020/10/12 00:42:52;;;;;;;13.85;10.9;;;;;;;5.78;92.25879;95412.98;;;;
2020/10/12 00:43:53;;;;;;;13.85;10.9;;;;;;;5.78;92.25879;95412.98;;;;
2020/10/12 00:44:53;;;;;;;13.85;10.9;;;;;;;5.78;92.25879;95412.98;;;;
2020/10/12 00:46:13;;;;;;;13.85;10.9;;;;;;;5.78;92.25879;95412.98;;;;
2020/10/12 00:47:14;;;;;;;13.85;10.9;;;;;;;5.78;92.25879;95412.98;;;;
2020/10/12 00:48:14;;;;;;;13.85;10.9;;;;;;;5.78;92.25879;95412.98;;;;
2020/10/12 00:49:19;;;;;;;13.85;10.9;;;;;;;5.78;92.25879;95412.98;;;;
2020/10/12 00:50:19;;;;;;;14.05;10.35;;;;;;;5.8;92.46289;95395.37;;;;
2020/10/12 00:51:20;;;;;;;14.05;10.35;;;;;;;5.8;92.46289;95395.37;;;;
2020/10/12 00:52:22;;;;;;;14.05;10.35;;;;;;;5.8;92.46289;95395.37;;;;
2020/10/12 00:53:25;;;;;;;14.05;10.35;;;;;;;5.8;92.46289;95395.37;;;;
2020/10/12 00:54:28;;;;;;;14.05;10.35;;;;;;;5.8;92.46289;95395.37;;;;
2020/10/12 00:55:29;;;;;;;14.05;10.35;;;;;;;5.8;92.46289;95395.37;;;;
2020/10/12 00:56:30;;;;;;;14.05;10.35;;;;;;;5.8;92.46289;95395.37;;;;
2020/10/12 00:57:31;;;;;;;14.05;10.35;;;;;;;5.8;92.46289;95395.37;;;;
2020/10/12 00:58:32;;;;;;;14.05;10.35;;;;;;;5.8;92.46289;95395.37;;;;
2020/10/12 00:59:33;;;;;;;14.05;10.35;;;;;;;5.8;92.46289;95395.37;;;;
2020/10/12 01:00:34;;;;;;;15.7;11.15;;;;;;;5.64;92.49219;95401.53;;;;
2020/10/12 01:09:54;;;;;;;15.7;11.15;;;;;;;5.64;92.49219;95401.53;;;;
2020/10/12 01:15:20;;;;;;;13.5;10.45;;;;;;;5.54;92.86133;95404.58;;;;
2020/10/12 01:16:28;;;;;;;13.5;10.45;;;;;;;5.54;92.86133;95404.58;;;;
2020/10/12 01:17:40;;;;;;;13.5;10.45;;;;;;;5.54;92.86133;95404.58;;;;
2020/10/12 01:18:51;;;;;;;13.5;10.45;;;;;;;5.54;92.86133;95404.58;;;;
2020/10/12 01:23:44;;;;;;;13.3;10.85;;;;;;;5.39;92.98438;95409.8;;;;
2020/10/12 01:29:29;;;;;;;13.3;10.85;;;;;;;5.39;92.98438;95409.8;;;;
2020/10/12 01:30:52;;;;;;;13.3;10.85;;;;;;;5.39;92.98438;95409.8;;;;
2020/10/12 01:33:07;;;;;;;15.45;11.7;;;;;;;5.37;93.34863;95407.83;;;;
2020/10/12 01:34:27;;;;;;;15.45;11.7;;;;;;;5.37;93.34863;95407.83;;;;
2020/10/12 01:36:39;;;;;;;15.45;11.7;;;;;;;5.37;93.34863;95407.83;;;;
2020/10/12 01:37:39;;;;;;;15.45;11.7;;;;;;;5.37;93.34863;95407.83;;;;
2020/10/12 01:38:40;;;;;;;15.45;11.7;;;;;;;5.37;93.34863;95407.83;;;;
2020/10/12 01:40:50;;;;;;;15.45;11.7;;;;;;;5.37;93.34863;95407.83;;;;
2020/10/12 01:48:16;;;;;;;18.45;12.4;;;;;;;5.4;93.21777;95401.68;;;;
2020/10/12 01:49:31;;;;;;;18.45;12.4;;;;;;;5.4;93.21777;95401.68;;;;
2020/10/12 01:50:41;;;;;;;18.45;12.4;;;;;;;5.4;93.21777;95401.68;;;;
2020/10/12 01:52:10;;;;;;;18.45;12.4;;;;;;;5.4;93.21777;95401.68;;;;
2020/10/12 01:53:23;;;;;;;18.45;12.4;;;;;;;5.4;93.21777;95401.68;;;;
2020/10/12 01:54:31;;;;;;;17.2;12;;;;;;;5.39;93.22656;95397.25;;;;
2020/10/12 01:55:53;;;;;;;17.2;12;;;;;;;5.39;93.22656;95397.25;;;;
2020/10/12 01:56:57;;;;;;;17.2;12;;;;;;;5.39;93.22656;95397.25;;;;
2020/10/12 01:57:58;;;;;;;17.2;12;;;;;;;5.39;93.22656;95397.25;;;;
2020/10/12 01:58:58;;;;;;;17.2;12;;;;;;;5.39;93.22656;95397.25;;;;
2020/10/12 01:59:59;;;;;;;17.2;12;;;;;;;5.39;93.22656;95397.25;;;;
2020/10/12 02:01:00;;;;;;;17.2;12;;;;;;;5.39;93.22656;95397.25;;;;
2020/10/12 02:02:23;;;;;;;17.2;12;;;;;;;5.39;93.22656;95397.25;;;;
2020/10/12 02:04:47;;;;;;;16.8;11.5;;;;;;;5.24;93.38477;95396.98;;;;
2020/10/12 02:14:38;;;;;;;16.8;11.5;;;;;;;5.24;93.38477;95396.98;;;;
2020/10/12 02:24:11;;;;;;;16.55;11.5;;;;;;;5.13;93.70898;95405.58;;;;
2020/10/12 02:27:09;;;;;;;14.65;11.25;;;;;;;4.97;93.94336;95407.34;;;;
2020/10/12 02:36:31;;;;;;;14.6;11.3;;;;;;;4.88;94.11426;95402.26;;;;
2020/10/12 02:38:01;;;;;;;14.6;11.3;;;;;;;4.88;94.11426;95402.26;;;;
2020/10/12 02:43:52;;;;;;;14.6;11.3;;;;;;;4.88;94.11426;95402.26;;;;
2020/10/12 02:47:05;;;;;;;15.1;11.6;;;;;;;4.65;94.22461;95408.33;;;;
2020/10/12 02:52:21;;;;;;;15.1;11.6;;;;;;;4.65;94.22461;95408.33;;;;
2020/10/12 02:54:19;;;;;;;15.1;11.6;;;;;;;4.65;94.22461;95408.33;;;;
2020/10/12 02:55:22;;;;;;;15.1;11.6;;;;;;;4.65;94.22461;95408.33;;;;
2020/10/12 03:00:37;;;;;;;17.2;11.65;;;;;;;4.51;94.46387;95410.19;;;;
2020/10/12 03:09:58;;;;;;;16.05;11.45;;;;;;;4.33;94.72656;95403.67;;;;
2020/10/12 03:12:30;;;;;;;16.05;11.45;;;;;;;4.33;94.72656;95403.67;;;;
2020/10/12 03:15:56;;;;;;;16.05;11.45;;;;;;;4.33;94.72656;95403.67;;;;
2020/10/12 03:24:08;;;;;;;15.25;11.15;;;;;;;4.22;95.05176;95412.13;;;;
2020/10/12 03:34:23;;;;;;;17.6;12;;;;;;;4.07;95.12109;95414.97;;;;
2020/10/12 03:38:49;;;;;;;17.6;12;;;;;;;4.07;95.12109;95414.97;;;;
2020/10/12 03:43:20;;;;;;;17.7;12.7;;;;;;;3.95;95.21191;95409.34;;;;
2020/10/12 03:48:58;;;;;;;17.7;12.7;;;;;;;3.95;95.21191;95409.34;;;;
2020/10/12 03:50:43;;;;;;;17.7;12.7;;;;;;;3.95;95.21191;95409.34;;;;
2020/10/12 03:58:59;;;;;;;15.75;12;;;;;;;3.77;95.22461;95423.66;;;;
2020/10/12 04:06:44;;;;;;;17;11.6;;;;;;;3.62;95.31445;95424.71;;;;
2020/10/12 04:12:22;;;;;;;18.4;12.2;;;;;;;3.37;95.44824;95425.17;;;;
2020/10/12 04:17:49;;;;;;;18.4;12.2;;;;;;;3.37;95.44824;95425.17;;;;
2020/10/12 04:18:51;;;;;;;18.4;12.2;;;;;;;3.37;95.44824;95425.17;;;;
2020/10/12 04:20:00;;;;;;;18.4;12.2;;;;;;;3.37;95.44824;95425.17;;;;
2020/10/12 04:21:32;;;;;;;18.4;12.2;;;;;;;3.37;95.44824;95425.17;;;;
2020/10/12 04:53:39;;;;;;;20.75;12.95;;;;;;;2.91;95.81641;95421.13;;;;
2020/10/12 04:54:44;;;;;;;20.75;12.95;;;;;;;2.91;95.81641;95421.13;;;;
2020/10/12 04:55:46;;;;;;;20.65;13.5;;;;;;;2.81;95.81445;95421.94;;;;
2020/10/12 05:00:10;;;;;;;20.65;13.5;;;;;;;2.81;95.81445;95421.94;;;;
2020/10/12 05:03:12;;;;;;;20.65;13.5;;;;;;;2.81;95.81445;95421.94;;;;
2020/10/12 05:12:36;;;;;;;19.95;12.7;;;;;;;2.73;95.81836;95427.76;;;;
2020/10/12 05:13:36;;;;;;;19.95;12.7;;;;;;;2.73;95.81836;95427.76;;;;
2020/10/12 05:14:37;;;;;;;19.95;12.7;;;;;;;2.73;95.81836;95427.76;;;;
2020/10/12 05:15:38;;;;;;;19.95;12.7;;;;;;;2.73;95.81836;95427.76;;;;
2020/10/12 05:16:41;;;;;;;20.3;12.9;;;;;;;2.64;95.87012;95434.62;;;;
2020/10/12 05:17:42;;;;;;;20.3;12.9;;;;;;;2.64;95.87012;95434.62;;;;
2020/10/12 05:18:43;;;;;;;20.3;12.9;;;;;;;2.64;95.87012;95434.62;;;;
2020/10/12 05:19:43;;;;;;;20.3;12.9;;;;;;;2.64;95.87012;95434.62;;;;
2020/10/12 05:20:44;;;;;;;20.3;12.9;;;;;;;2.64;95.87012;95434.62;;;;
2020/10/12 05:21:44;;;;;;;20.3;12.9;;;;;;;2.64;95.87012;95434.62;;;;
2020/10/12 05:22:54;;;;;;;20.3;12.9;;;;;;;2.64;95.87012;95434.62;;;;
2020/10/12 05:23:55;;;;;;;20.3;12.9;;;;;;;2.64;95.87012;95434.62;;;;
2020/10/12 05:24:57;;;;;;;20.3;12.9;;;;;;;2.64;95.87012;95434.62;;;;
2020/10/12 05:25:58;;;;;;;20.3;12.9;;;;;;;2.64;95.87012;95434.62;;;;
2020/10/12 05:26:58;;;;;;;20.55;13.45;;;;;;;2.55;95.82031;95436.14;;;;
2020/10/12 05:28:21;;;;;;;20.55;13.45;;;;;;;2.55;95.82031;95436.14;;;;
2020/10/12 05:29:22;;;;;;;20.55;13.45;;;;;;;2.55;95.82031;95436.14;;;;
2020/10/12 05:30:22;;;;;;;20.55;13.45;;;;;;;2.55;95.82031;95436.14;;;;
2020/10/12 05:31:23;;;;;;;20.55;13.45;;;;;;;2.55;95.82031;95436.14;;;;
2020/10/12 05:32:24;;;;;;;20.55;13.45;;;;;;;2.55;95.82031;95436.14;;;;
2020/10/12 05:33:25;;;;;;;20.55;13.45;;;;;;;2.55;95.82031;95436.14;;;;
2020/10/12 05:34:31;;;;;;;20.55;13.45;;;;;;;2.55;95.82031;95436.14;;;;
2020/10/12 05:35:32;;;;;;;20.55;13.45;;;;;;;2.55;95.82031;95436.14;;;;
2020/10/12 05:36:32;;;;;;;20.55;13.45;;;;;;;2.55;95.82031;95436.14;;;;
2020/10/12 05:37:33;;;;;;;20.55;13.45;;;;;;;2.55;95.82031;95436.14;;;;
2020/10/12 05:38:34;;;;;;;19.7;12.85;;;;;;;2.43;96.00391;95443.33;;;;
2020/10/12 05:39:35;;;;;;;19.7;12.85;;;;;;;2.43;96.00391;95443.33;;;;
2020/10/12 05:40:37;;;;;;;19.7;12.85;;;;;;;2.43;96.00391;95443.33;;;;
2020/10/12 05:41:38;;;;;;;19.7;12.85;;;;;;;2.43;96.00391;95443.33;;;;
2020/10/12 05:42:38;;;;;;;19.7;12.85;;;;;;;2.43;96.00391;95443.33;;;;
2020/10/12 05:43:39;;;;;;;19.7;12.85;;;;;;;2.43;96.00391;95443.33;;;;
2020/10/12 05:44:40;;;;;;;19.7;12.85;;;;;;;2.43;96.00391;95443.33;;;;
2020/10/12 05:45:42;;;;;;;19.7;12.85;;;;;;;2.43;96.00391;95443.33;;;;
2020/10/12 05:46:42;;;;;;;19.7;12.85;;;;;;;2.43;96.00391;95443.33;;;;
2020/10/12 05:47:43;;;;;;;19.7;12.85;;;;;;;2.43;96.00391;95443.33;;;;
2020/10/12 05:48:43;;;;;;;22.2;13.3;;;;;;;2.44;96.04492;95457.48;;;;
2020/10/12 05:49:44;;;;;;;22.2;13.3;;;;;;;2.44;96.04492;95457.48;;;;
2020/10/12 05:50:44;;;;;;;22.2;13.3;;;;;;;2.44;96.04492;95457.48;;;;
2020/10/12 05:51:45;;;;;;;22.2;13.3;;;;;;;2.44;96.04492;95457.48;;;;
2020/10/12 05:52:46;;;;;;;22.2;13.3;;;;;;;2.44;96.04492;95457.48;;;;
2020/10/12 05:53:46;;;;;;;22.2;13.3;;;;;;;2.44;96.04492;95457.48;;;;
2020/10/12 05:54:49;;;;;;;22.2;13.3;;;;;;;2.44;96.04492;95457.48;;;;
2020/10/12 05:55:50;;;;;;;22.2;13.3;;;;;;;2.44;96.04492;95457.48;;;;
2020/10/12 05:56:50;;;;;;;22.2;13.3;;;;;;;2.44;96.04492;95457.48;;;;
2020/10/12 05:57:51;;;;;;;22.2;13.3;;;;;;;2.44;96.04492;95457.48;;;;
2020/10/12 05:58:51;;;;;;;22.2;13.3;;;;;;;2.44;96.04492;95457.48;;;;
2020/10/12 05:59:52;;;;;;;21.65;13.45;;;;;;;2.39;95.91016;95475.86;;;;
2020/10/12 06:00:53;;;;;;;21.65;13.45;;;;;;;2.39;95.91016;95475.86;;;;
2020/10/12 06:01:54;;;;;;;21.65;13.45;;;;;;;2.39;95.91016;95475.86;;;;
2020/10/12 06:02:54;;;;;;;21.65;13.45;;;;;;;2.39;95.91016;95475.86;;;;
2020/10/12 06:03:55;;;;;;;21.65;13.45;;;;;;;2.39;95.91016;95475.86;;;;
2020/10/12 06:04:56;;;;;;;21.65;13.45;;;;;;;2.39;95.91016;95475.86;;;;
2020/10/12 06:05:58;;;;;;;21.65;13.45;;;;;;;2.39;95.91016;95475.86;;;;
2020/10/12 06:06:58;;;;;;;21.65;13.45;;;;;;;2.39;95.91016;95475.86;;;;
2020/10/12 06:07:59;;;;;;;21.65;13.45;;;;;;;2.39;95.91016;95475.86;;;;
2020/10/12 06:09:00;;;;;;;21.65;13.45;;;;;;;2.39;95.91016;95475.86;;;;
2020/10/12 06:10:01;;;;;;;21.1;13.25;;;;;;;2.42;95.86621;95477.66;;;;
2020/10/12 06:11:02;;;;;;;21.1;13.25;;;;;;;2.42;95.86621;95477.66;;;;
2020/10/12 06:12:03;;;;;;;21.1;13.25;;;;;;;2.42;95.86621;95477.66;;;;
2020/10/12 06:13:04;;;;;;;21.1;13.25;;;;;;;2.42;95.86621;95477.66;;;;
2020/10/12 06:14:04;;;;;;;21.1;13.25;;;;;;;2.42;95.86621;95477.66;;;;
2020/10/12 06:15:05;;;;;;;21.1;13.25;;;;;;;2.42;95.86621;95477.66;;;;
2020/10/12 06:16:12;;;;;;;21.1;13.25;;;;;;;2.42;95.86621;95477.66;;;;
2020/10/12 06:17:14;;;;;;;21.1;13.25;;;;;;;2.42;95.86621;95477.66;;;;
2020/10/12 06:18:14;;;;;;;21.1;13.25;;;;;;;2.42;95.86621;95477.66;;;;
2020/10/12 06:19:15;;;;;;;21.1;13.25;;;;;;;2.42;95.86621;95477.66;;;;
2020/10/12 06:20:15;;;;;;;24.75;14.15;;;;;;;2.42;95.92676;95483.06;;;;
2020/10/12 06:21:16;;;;;;;24.75;14.15;;;;;;;2.42;95.92676;95483.06;;;;
2020/10/12 06:22:16;;;;;;;24.75;14.15;;;;;;;2.42;95.92676;95483.06;;;;
2020/10/12 06:23:17;;;;;;;24.75;14.15;;;;;;;2.42;95.92676;95483.06;;;;
2020/10/12 06:25:03;;;;;;;24.75;14.15;;;;;;;2.42;95.92676;95483.06;;;;
2020/10/12 06:26:05;;;;;;;24.75;14.15;;;;;;;2.42;95.92676;95483.06;;;;
2020/10/12 06:27:05;;;;;;;24.75;14.15;;;;;;;2.42;95.92676;95483.06;;;;
2020/10/12 06:28:08;;;;;;;24.75;14.15;;;;;;;2.42;95.92676;95483.06;;;;
2020/10/12 06:29:08;;;;;;;24.75;14.15;;;;;;;2.42;95.92676;95483.06;;;;
2020/10/12 06:30:09;;;;;;;24.75;14.15;;;;;;;2.42;95.92676;95483.06;;;;
2020/10/12 06:31:10;;;;;;;28.25;14.35;;;;;;;2.61;96.08496;95477.61;;;;
2020/10/12 06:32:10;;;;;;;28.25;14.35;;;;;;;2.61;96.08496;95477.61;;;;
2020/10/12 06:33:11;;;;;;;28.25;14.35;;;;;;;2.61;96.08496;95477.61;;;;
2020/10/12 06:34:11;;;;;;;28.25;14.35;;;;;;;2.61;96.08496;95477.61;;;;
2020/10/12 06:35:12;;;;;;;28.25;14.35;;;;;;;2.61;96.08496;95477.61;;;;
2020/10/12 06:36:12;;;;;;;28.25;14.35;;;;;;;2.61;96.08496;95477.61;;;;
2020/10/12 06:37:13;;;;;;;28.25;14.35;;;;;;;2.61;96.08496;95477.61;;;;
2020/10/12 06:38:13;;;;;;;28.25;14.35;;;;;;;2.61;96.08496;95477.61;;;;
2020/10/12 06:39:14;;;;;;;28.25;14.35;;;;;;;2.61;96.08496;95477.61;;;;
2020/10/12 06:40:19;;;;;;;28.25;14.35;;;;;;;2.61;96.08496;95477.61;;;;
2020/10/12 06:41:20;;;;;;;28.25;14.35;;;;;;;2.61;96.08496;95477.61;;;;
2020/10/12 06:42:23;;;;;;;23.95;15.1;;;;;;;2.8;95.70996;95496.17;;;;
2020/10/12 06:43:23;;;;;;;23.95;15.1;;;;;;;2.8;95.70996;95496.17;;;;
2020/10/12 06:44:24;;;;;;;23.95;15.1;;;;;;;2.8;95.70996;95496.17;;;;
2020/10/12 06:45:24;;;;;;;23.95;15.1;;;;;;;2.8;95.70996;95496.17;;;;
2020/10/12 06:46:25;;;;;;;23.95;15.1;;;;;;;2.8;95.70996;95496.17;;;;
2020/10/12 06:47:26;;;;;;;23.95;15.1;;;;;;;2.8;95.70996;95496.17;;;;
2020/10/12 06:48:26;;;;;;;23.95;15.1;;;;;;;2.8;95.70996;95496.17;;;;
2020/10/12 06:49:27;;;;;;;23.95;15.1;;;;;;;2.8;95.70996;95496.17;;;;
2020/10/12 06:50:27;;;;;;;23.95;15.1;;;;;;;2.8;95.70996;95496.17;;;;
2020/10/12 06:51:28;;;;;;;23.95;15.1;;;;;;;2.8;95.70996;95496.17;;;;
2020/10/12 06:52:28;;;;;;;27;16.5;;;;;;;3.2;95.86035;95505.13;;;;
2020/10/12 06:53:29;;;;;;;27;16.5;;;;;;;3.2;95.86035;95505.13;;;;
2020/10/12 06:54:29;;;;;;;27;16.5;;;;;;;3.2;95.86035;95505.13;;;;
2020/10/12 06:55:30;;;;;;;27;16.5;;;;;;;3.2;95.86035;95505.13;;;;
2020/10/12 06:56:31;;;;;;;27;16.5;;;;;;;3.2;95.86035;95505.13;;;;
2020/10/12 06:57:32;;;;;;;27;16.5;;;;;;;3.2;95.86035;95505.13;;;;
2020/10/12 06:58:32;;;;;;;27;16.5;;;;;;;3.2;95.86035;95505.13;;;;
2020/10/12 06:59:33;;;;;;;27;16.5;;;;;;;3.2;95.86035;95505.13;;;;
2020/10/12 07:00:33;;;;;;;27;16.5;;;;;;;3.2;95.86035;95505.13;;;;
2020/10/12 07:01:34;;;;;;;27;16.5;;;;;;;3.2;95.86035;95505.13;;;;
2020/10/12 07:02:35;;;;;;;27;16.5;;;;;;;3.2;95.86035;95505.13;;;;
2020/10/12 07:03:35;;;;;;;30.45;17.75;;;;;;;4.55;94.61914;95497.94;;;;
2020/10/12 07:04:36;;;;;;;30.45;17.75;;;;;;;4.55;94.61914;95497.94;;;;
2020/10/12 07:05:36;;;;;;;30.45;17.75;;;;;;;4.55;94.61914;95497.94;;;;
2020/10/12 07:06:37;;;;;;;30.45;17.75;;;;;;;4.55;94.61914;95497.94;;;;
2020/10/12 07:07:39;;;;;;;30.45;17.75;;;;;;;4.55;94.61914;95497.94;;;;
2020/10/12 07:08:39;;;;;;;30.45;17.75;;;;;;;4.55;94.61914;95497.94;;;;
2020/10/12 07:09:40;;;;;;;30.45;17.75;;;;;;;4.55;94.61914;95497.94;;;;
2020/10/12 07:10:40;;;;;;;30.45;17.75;;;;;;;4.55;94.61914;95497.94;;;;
2020/10/12 07:11:41;;;;;;;30.45;17.75;;;;;;;4.55;94.61914;95497.94;;;;
2020/10/12 07:12:41;;;;;;;30.45;17.75;;;;;;;4.55;94.61914;95497.94;;;;
2020/10/12 07:13:42;;;;;;;30.45;17.75;;;;;;;4.55;94.61914;95497.94;;;;
2020/10/12 07:14:44;;;;;;;19.8;13.3;;;;;;;8.81;84.24219;95493.28;;;;
2020/10/12 07:15:44;;;;;;;19.8;13.3;;;;;;;8.81;84.24219;95493.28;;;;
2020/10/12 07:16:45;;;;;;;19.8;13.3;;;;;;;8.81;84.24219;95493.28;;;;
2020/10/12 07:17:46;;;;;;;19.8;13.3;;;;;;;8.81;84.24219;95493.28;;;;
2020/10/12 07:18:46;;;;;;;19.8;13.3;;;;;;;8.81;84.24219;95493.28;;;;
2020/10/12 07:19:47;;;;;;;19.8;13.3;;;;;;;8.81;84.24219;95493.28;;;;
2020/10/12 07:20:47;;;;;;;19.8;13.3;;;;;;;8.81;84.24219;95493.28;;;;
2020/10/12 07:21:48;;;;;;;19.8;13.3;;;;;;;8.81;84.24219;95493.28;;;;
2020/10/12 07:22:48;;;;;;;19.8;13.3;;;;;;;8.81;84.24219;95493.28;;;;
2020/10/12 07:23:49;;;;;;;19.8;13.3;;;;;;;8.81;84.24219;95493.28;;;;
2020/10/12 07:24:49;;;;;;;17.25;10.45;;;;;;;13.48;74.16699;95495.56;;;;
2020/10/12 07:25:50;;;;;;;17.25;10.45;;;;;;;13.48;74.16699;95495.56;;;;
2020/10/12 07:26:52;;;;;;;17.25;10.45;;;;;;;13.48;74.16699;95495.56;;;;
2020/10/12 07:27:53;;;;;;;17.25;10.45;;;;;;;13.48;74.16699;95495.56;;;;
2020/10/12 07:28:53;;;;;;;17.25;10.45;;;;;;;13.48;74.16699;95495.56;;;;
2020/10/12 07:29:54;;;;;;;17.25;10.45;;;;;;;13.48;74.16699;95495.56;;;;
2020/10/12 07:30:55;;;;;;;17.25;10.45;;;;;;;13.48;74.16699;95495.56;;;;
2020/10/12 07:31:55;;;;;;;17.25;10.45;;;;;;;13.48;74.16699;95495.56;;;;
2020/10/12 07:32:56;;;;;;;17.25;10.45;;;;;;;13.48;74.16699;95495.56;;;;
2020/10/12 07:33:59;;;;;;;17.25;10.45;;;;;;;13.48;74.16699;95495.56;;;;
2020/10/12 07:35:00;;;;;;;17.25;10.45;;;;;;;13.48;74.16699;95495.56;;;;
2020/10/12 07:36:00;;;;;;;10.95;9.65;;;;;;;16.87;69.12012;95490.95;;;;
2020/10/12 07:37:01;;;;;;;10.95;9.65;;;;;;;16.87;69.12012;95490.95;;;;
2020/10/12 07:38:01;;;;;;;10.95;9.65;;;;;;;16.87;69.12012;95490.95;;;;
2020/10/12 07:39:02;;;;;;;10.95;9.65;;;;;;;16.87;69.12012;95490.95;;;;
2020/10/12 07:40:03;;;;;;;10.95;9.65;;;;;;;16.87;69.12012;95490.95;;;;
2020/10/12 07:41:05;;;;;;;10.95;9.65;;;;;;;16.87;69.12012;95490.95;;;;
2020/10/12 07:42:06;;;;;;;10.95;9.65;;;;;;;16.87;69.12012;95490.95;;;;
2020/10/12 07:43:06;;;;;;;10.95;9.65;;;;;;;16.87;69.12012;95490.95;;;;
2020/10/12 07:44:07;;;;;;;10.95;9.65;;;;;;;16.87;69.12012;95490.95;;;;
2020/10/12 07:45:08;;;;;;;10.95;9.65;;;;;;;16.87;69.12012;95490.95;;;;
2020/10/12 07:46:17;;;;;;;10.2;9.200001;;;;;;;18.99;65.79004;95504.94;;;;
2020/10/12 07:47:17;;;;;;;10.2;9.200001;;;;;;;18.99;65.79004;95504.94;;;;
2020/10/12 07:48:18;;;;;;;10.2;9.200001;;;;;;;18.99;65.79004;95504.94;;;;
2020/10/12 07:49:18;;;;;;;10.2;9.200001;;;;;;;18.99;65.79004;95504.94;;;;
2020/10/12 07:50:19;;;;;;;10.2;9.200001;;;;;;;18.99;65.79004;95504.94;;;;
2020/10/12 07:51:20;;;;;;;10.2;9.200001;;;;;;;18.99;65.79004;95504.94;;;;
2020/10/12 07:52:21;;;;;;;10.2;9.200001;;;;;;;18.99;65.79004;95504.94;;;;
2020/10/12 07:53:21;;;;;;;10.2;9.200001;;;;;;;18.99;65.79004;95504.94;;;;
2020/10/12 07:54:22;;;;;;;10.2;9.200001;;;;;;;18.99;65.79004;95504.94;;;;
2020/10/12 07:55:22;;;;;;;10.2;9.200001;;;;;;;18.99;65.79004;95504.94;;;;
2020/10/12 07:56:23;;;;;;;10.2;9.200001;;;;;;;18.99;65.79004;95504.94;;;;
2020/10/12 07:57:23;;;;;;;10.9;9.9;;;;;;;20.56;63.77051;95502.08;;;;
2020/10/12 07:58:24;;;;;;;10.9;9.9;;;;;;;20.56;63.77051;95502.08;;;;
2020/10/12 07:59:25;;;;;;;10.9;9.9;;;;;;;20.56;63.77051;95502.08;;;;
2020/10/12 08:00:25;;;;;;;10.9;9.9;;;;;;;20.56;63.77051;95502.08;;;;
2020/10/12 08:01:26;;;;;;;10.9;9.9;;;;;;;20.56;63.77051;95502.08;;;;
2020/10/12 08:02:26;;;;;;;10.9;9.9;;;;;;;20.56;63.77051;95502.08;;;;
2020/10/12 08:03:27;;;;;;;10.9;9.9;;;;;;;20.56;63.77051;95502.08;;;;
2020/10/12 08:04:28;;;;;;;10.9;9.9;;;;;;;20.56;63.77051;95502.08;;;;
2020/10/12 08:05:30;;;;;;;10.9;9.9;;;;;;;20.56;63.77051;95502.08;;;;
2020/10/12 08:06:30;;;;;;;10.9;9.9;;;;;;;20.56;63.77051;95502.08;;;;
2020/10/12 08:07:31;;;;;;;11.7;10.6;;;;;;;17.63;69.19629;95504.14;;;;
2020/10/12 08:08:31;;;;;;;11.7;10.6;;;;;;;17.63;69.19629;95504.14;;;;
2020/10/12 08:09:32;;;;;;;11.7;10.6;;;;;;;17.63;69.19629;95504.14;;;;
2020/10/12 08:10:33;;;;;;;11.7;10.6;;;;;;;17.63;69.19629;95504.14;;;;
2020/10/12 08:11:33;;;;;;;11.7;10.6;;;;;;;17.63;69.19629;95504.14;;;;
2020/10/12 08:12:34;;;;;;;11.7;10.6;;;;;;;17.63;69.19629;95504.14;;;;
2020/10/12 08:13:35;;;;;;;11.7;10.6;;;;;;;17.63;69.19629;95504.14;;;;
2020/10/12 08:14:35;;;;;;;11.7;10.6;;;;;;;17.63;69.19629;95504.14;;;;
2020/10/12 08:15:36;;;;;;;11.7;10.6;;;;;;;17.63;69.19629;95504.14;;;;
2020/10/12 08:16:36;;;;;;;11.7;10.6;;;;;;;17.63;69.19629;95504.14;;;;
2020/10/12 08:17:37;;;;;;;11.7;10.6;;;;;;;17.63;69.19629;95504.14;;;;
2020/10/12 08:18:38;;;;;;;17.1;10.95;;;;;;;14.4;76.27441;95496.97;;;;
2020/10/12 08:19:38;;;;;;;17.1;10.95;;;;;;;14.4;76.27441;95496.97;;;;
2020/10/12 08:20:39;;;;;;;17.1;10.95;;;;;;;14.4;76.27441;95496.97;;;;
2020/10/12 08:21:39;;;;;;;17.1;10.95;;;;;;;14.4;76.27441;95496.97;;;;
2020/10/12 08:22:41;;;;;;;17.1;10.95;;;;;;;14.4;76.27441;95496.97;;;;
2020/10/12 08:23:41;;;;;;;17.1;10.95;;;;;;;14.4;76.27441;95496.97;;;;
2020/10/12 08:24:42;;;;;;;17.1;10.95;;;;;;;14.4;76.27441;95496.97;;;;
2020/10/12 08:25:43;;;;;;;17.1;10.95;;;;;;;14.4;76.27441;95496.97;;;;
2020/10/12 08:26:43;;;;;;;17.1;10.95;;;;;;;14.4;76.27441;95496.97;;;;
2020/10/12 08:27:46;;;;;;;17.1;10.95;;;;;;;14.4;76.27441;95496.97;;;;
2020/10/12 08:28:47;;;;;;;18.95;11.5;;;;;;;12.68;80.70313;95490.55;;;;
2020/10/12 08:29:47;;;;;;;18.95;11.5;;;;;;;12.68;80.70313;95490.55;;;;
2020/10/12 08:30:48;;;;;;;18.95;11.5;;;;;;;12.68;80.70313;95490.55;;;;
2020/10/12 08:31:49;;;;;;;18.95;11.5;;;;;;;12.68;80.70313;95490.55;;;;
2020/10/12 08:32:49;;;;;;;18.95;11.5;;;;;;;12.68;80.70313;95490.55;;;;
2020/10/12 08:33:50;;;;;;;18.95;11.5;;;;;;;12.68;80.70313;95490.55;;;;
2020/10/12 08:34:50;;;;;;;18.95;11.5;;;;;;;12.68;80.70313;95490.55;;;;
2020/10/12 08:35:54;;;;;;;18.95;11.5;;;;;;;12.68;80.70313;95490.55;;;;
2020/10/12 08:36:54;;;;;;;18.95;11.5;;;;;;;12.68;80.70313;95490.55;;;;
2020/10/12 08:37:55;;;;;;;18.95;11.5;;;;;;;12.68;80.70313;95490.55;;;;
2020/10/12 08:38:55;;;;;;;18.95;11.5;;;;;;;12.68;80.70313;95490.55;;;;
2020/10/12 08:39:56;;;;;;;13.6;10.75;;;;;;;13.59;78.08301;95507.39;;;;
2020/10/12 08:40:57;;;;;;;13.6;10.75;;;;;;;13.59;78.08301;95507.39;;;;
2020/10/12 08:41:57;;;;;;;13.6;10.75;;;;;;;13.59;78.08301;95507.39;;;;
2020/10/12 08:42:58;;;;;;;13.6;10.75;;;;;;;13.59;78.08301;95507.39;;;;
2020/10/12 08:43:58;;;;;;;13.6;10.75;;;;;;;13.59;78.08301;95507.39;;;;
2020/10/12 08:44:59;;;;;;;13.6;10.75;;;;;;;13.59;78.08301;95507.39;;;;
2020/10/12 08:45:59;;;;;;;13.6;10.75;;;;;;;13.59;78.08301;95507.39;;;;
2020/10/12 08:47:00;;;;;;;13.6;10.75;;;;;;;13.59;78.08301;95507.39;;;;
2020/10/12 08:48:00;;;;;;;13.6;10.75;;;;;;;13.59;78.08301;95507.39;;;;
2020/10/12 08:49:01;;;;;;;13.6;10.75;;;;;;;13.59;78.08301;95507.39;;;;
2020/10/12 08:50:02;;;;;;;11.35;10.2;;;;;;;14.23;75.81348;95501.61;;;;
2020/10/12 08:51:03;;;;;;;11.35;10.2;;;;;;;14.23;75.81348;95501.61;;;;
2020/10/12 08:52:03;;;;;;;11.35;10.2;;;;;;;14.23;75.81348;95501.61;;;;
2020/10/12 08:53:04;;;;;;;11.35;10.2;;;;;;;14.23;75.81348;95501.61;;;;
2020/10/12 08:54:05;;;;;;;11.35;10.2;;;;;;;14.23;75.81348;95501.61;;;;
2020/10/12 08:55:05;;;;;;;11.35;10.2;;;;;;;14.23;75.81348;95501.61;;;;
2020/10/12 08:56:06;;;;;;;11.35;10.2;;;;;;;14.23;75.81348;95501.61;;;;
2020/10/12 08:57:07;;;;;;;11.35;10.2;;;;;;;14.23;75.81348;95501.61;;;;
2020/10/12 08:58:07;;;;;;;11.35;10.2;;;;;;;14.23;75.81348;95501.61;;;;
2020/10/12 08:59:08;;;;;;;11.35;10.2;;;;;;;14.23;75.81348;95501.61;;;;
2020/10/12 09:00:08;;;;;;;11.35;10.2;;;;;;;14.23;75.81348;95501.61;;;;
2020/10/12 09:01:17;;;;;;;10.2;9.1;;;;;;;13.35;78.0498;95500.51;;;;
2020/10/12 09:02:18;;;;;;;10.2;9.1;;;;;;;13.35;78.0498;95500.51;;;;
2020/10/12 09:03:18;;;;;;;10.2;9.1;;;;;;;13.35;78.0498;95500.51;;;;
2020/10/12 09:04:19;;;;;;;10.2;9.1;;;;;;;13.35;78.0498;95500.51;;;;
2020/10/12 09:05:19;;;;;;;10.2;9.1;;;;;;;13.35;78.0498;95500.51;;;;
2020/10/12 09:06:20;;;;;;;10.2;9.1;;;;;;;13.35;78.0498;95500.51;;;;
2020/10/12 09:07:21;;;;;;;10.2;9.1;;;;;;;13.35;78.0498;95500.51;;;;
2020/10/12 09:08:21;;;;;;;10.2;9.1;;;;;;;13.35;78.0498;95500.51;;;;
2020/10/12 09:09:22;;;;;;;10.2;9.1;;;;;;;13.35;78.0498;95500.51;;;;
2020/10/12 09:10:23;;;;;;;10.2;9.1;;;;;;;13.35;78.0498;95500.51;;;;
2020/10/12 09:11:23;;;;;;;9.7;8.35;;;;;;;13.74;77.60352;95491.75;;;;
2020/10/12 09:12:24;;;;;;;9.7;8.35;;;;;;;13.74;77.60352;95491.75;;;;
2020/10/12 09:13:24;;;;;;;9.7;8.35;;;;;;;13.74;77.60352;95491.75;;;;